createdAt,value
2023-03-01T00:04:40.862Z,-3.27
2023-03-01T00:09:42.541Z,-3.20
2023-03-01T00:14:44.150Z,-3.39
2023-03-01T00:19:45.786Z,-3.22
2023-03-01T00:24:47.503Z,-3.26
2023-03-01T00:29:49.102Z,-3.34
2023-03-01T00:34:55.230Z,-3.53
2023-03-01T00:39:56.942Z,-3.76
2023-03-01T00:44:58.637Z,-3.71
2023-03-01T00:50:00.400Z,-4.08
2023-03-01T00:55:02.105Z,-4.20
2023-03-01T01:00:06.721Z,-4.17
2023-03-01T01:05:08.621Z,-4.08
2023-03-01T01:10:13.878Z,-4.17
2023-03-01T01:15:17.525Z,-4.16
2023-03-01T01:20:19.316Z,-4.08
2023-03-01T01:25:21.279Z,-3.95
2023-03-01T01:30:22.998Z,-4.11
2023-03-01T01:35:24.724Z,-4.17
2023-03-01T01:40:26.459Z,-4.33
2023-03-01T01:45:31.440Z,-4.40
2023-03-01T01:50:39.295Z,-4.17
2023-03-01T01:55:46.314Z,-4.04
2023-03-01T02:00:48.970Z,-4.12
2023-03-01T02:06:12.185Z,-4.26
2023-03-01T02:11:18.218Z,-4.21
2023-03-01T02:16:20.768Z,-4.43
2023-03-01T02:21:45.253Z,-4.22
2023-03-01T02:26:51.168Z,-4.36
2023-03-01T02:31:57.498Z,-4.38
2023-03-01T02:37:05.631Z,-4.65
2023-03-01T02:42:07.878Z,-4.85
2023-03-01T02:47:09.615Z,-4.88
2023-03-01T02:52:29.859Z,-4.88
2023-03-01T02:57:33.926Z,-4.46
2023-03-01T03:02:37.169Z,-4.61
2023-03-01T03:07:56.494Z,-4.83
2023-03-01T03:13:01.969Z,-5.03
2023-03-01T03:18:06.016Z,-5.02
2023-03-01T03:23:07.977Z,-4.92
2023-03-01T03:28:12.523Z,-4.61
2023-03-01T03:33:14.952Z,-4.93
2023-03-01T03:38:20.064Z,-5.22
2023-03-01T03:43:23.958Z,-4.86
2023-03-01T03:48:26.828Z,-4.97
2023-03-01T03:53:30.091Z,-4.78
2023-03-01T03:58:31.861Z,-4.92
2023-03-01T04:03:34.232Z,-5.07
2023-03-01T04:08:35.910Z,-5.23
2023-03-01T04:13:37.561Z,-5.44
2023-03-01T04:18:39.215Z,-5.32
2023-03-01T04:23:41.959Z,-5.24
2023-03-01T04:28:46.308Z,-5.06
2023-03-01T04:33:52.377Z,-5.49
2023-03-01T04:38:54.807Z,-5.61
2023-03-01T04:43:56.641Z,-5.48
2023-03-01T04:48:58.359Z,-4.93
2023-03-01T04:54:01.446Z,-5.26
2023-03-01T04:59:06.691Z,-5.55
2023-03-01T05:04:13.912Z,-5.69
2023-03-01T05:09:15.595Z,-5.70
2023-03-01T05:14:17.237Z,-5.26
2023-03-01T05:19:23.574Z,-5.23
2023-03-01T05:24:25.682Z,-5.21
2023-03-01T05:29:29.378Z,-5.61
2023-03-01T05:34:34.092Z,-5.73
2023-03-01T05:39:35.866Z,-5.26
2023-03-01T05:44:37.841Z,-5.29
2023-03-01T05:49:39.894Z,-5.21
2023-03-01T05:54:41.656Z,-5.36
2023-03-01T05:59:43.279Z,-5.33
2023-03-01T06:04:45.020Z,-5.57
2023-03-01T06:09:46.801Z,-5.30
2023-03-01T06:14:48.801Z,-5.41
2023-03-01T06:19:50.529Z,-5.40
2023-03-01T06:24:52.243Z,-5.05
2023-03-01T06:29:53.976Z,-4.62
2023-03-01T06:34:55.817Z,-3.87
2023-03-01T06:39:58.086Z,-2.53
2023-03-01T06:44:59.781Z,-1.07
2023-03-01T06:50:03.258Z,-0.84
2023-03-01T06:55:05.771Z,-0.33
2023-03-01T07:00:09.202Z,-0.11
2023-03-01T07:05:10.908Z,-0.29
2023-03-01T07:10:13.627Z,-0.50
2023-03-01T07:15:16.475Z,-1.12
2023-03-01T07:20:26.463Z,-2.24
2023-03-01T07:25:29.063Z,-2.50
2023-03-01T07:30:30.804Z,-2.45
2023-03-01T07:35:34.788Z,-2.65
2023-03-01T07:40:36.824Z,-2.47
2023-03-01T07:45:40.604Z,-1.91
2023-03-01T07:50:43.338Z,-1.95
2023-03-01T07:55:45.177Z,-1.43
2023-03-01T08:00:46.989Z,-2.10
2023-03-01T08:05:48.630Z,-2.05
2023-03-01T08:10:51.418Z,-1.42
2023-03-01T08:15:53.817Z,-1.30
2023-03-01T08:20:55.690Z,-1.70
2023-03-01T08:26:08.709Z,-1.81
2023-03-01T08:31:36.365Z,-1.38
2023-03-01T08:37:02.241Z,-1.53
2023-03-01T08:42:05.251Z,-1.25
2023-03-01T08:47:07.560Z,-0.89
2023-03-01T08:52:09.819Z,-0.37
2023-03-01T08:57:11.870Z,-0.55
2023-03-01T09:02:17.599Z,-0.66
2023-03-01T09:07:22.369Z,-0.62
2023-03-01T09:12:28.418Z,-0.48
2023-03-01T09:17:30.076Z,-0.52
2023-03-01T09:22:33.795Z,-0.55
2023-03-01T09:27:35.433Z,-0.48
2023-03-01T09:32:37.151Z,-0.19
2023-03-01T09:37:39.512Z,0.03
2023-03-01T09:42:50.005Z,0.16
2023-03-01T09:47:55.615Z,0.25
2023-03-01T09:53:10.307Z,0.18
2023-03-01T09:58:30.485Z,0.34
2023-03-01T10:03:37.523Z,0.67
2023-03-01T10:09:03.667Z,0.92
2023-03-01T10:14:28.489Z,1.02
2023-03-01T10:19:44.911Z,1.50
2023-03-01T10:24:47.814Z,1.85
2023-03-01T10:30:02.122Z,2.22
2023-03-01T10:35:18.650Z,2.72
2023-03-01T10:40:20.341Z,2.99
2023-03-01T10:45:31.178Z,3.24
2023-03-01T10:50:33.219Z,3.98
2023-03-01T10:55:36.265Z,4.18
2023-03-01T11:01:07.254Z,4.62
2023-03-01T11:06:11.935Z,4.97
2023-03-01T11:11:17.656Z,5.07
2023-03-01T11:16:27.090Z,4.70
2023-03-01T11:21:32.805Z,5.42
2023-03-01T11:26:39.703Z,5.38
2023-03-01T11:31:56.790Z,5.95
2023-03-01T11:37:03.104Z,6.40
2023-03-01T11:42:19.419Z,6.38
2023-03-01T11:47:27.434Z,6.51
2023-03-01T11:52:43.737Z,5.99
2023-03-01T11:58:08.695Z,6.31
2023-03-01T12:03:36.639Z,6.19
2023-03-01T12:08:52.967Z,6.05
2023-03-01T12:14:00.309Z,6.05
2023-03-01T12:19:39.256Z,6.04
2023-03-01T12:25:02.188Z,5.95
2023-03-01T12:30:31.157Z,5.71
2023-03-01T12:35:32.772Z,5.34
2023-03-01T12:40:49.354Z,5.13
2023-03-01T12:46:06.412Z,4.83
2023-03-01T12:51:11.812Z,4.55
2023-03-01T12:56:19.004Z,4.42
2023-03-01T13:01:27.607Z,4.37
2023-03-01T13:06:43.226Z,4.43
2023-03-01T13:11:45.858Z,4.48
2023-03-01T13:16:50.436Z,4.37
2023-03-01T13:21:57.744Z,4.12
2023-03-01T13:27:08.656Z,4.25
2023-03-01T13:32:37.995Z,4.28
2023-03-01T13:37:45.983Z,4.32
2023-03-01T13:43:05.757Z,4.39
2023-03-01T13:48:12.955Z,4.39
2023-03-01T13:53:20.917Z,4.22
2023-03-01T13:58:29.186Z,4.38
2023-03-01T14:03:32.882Z,4.48
2023-03-01T14:08:38.104Z,4.66
2023-03-01T14:14:04.719Z,4.66
2023-03-01T14:19:33.066Z,4.38
2023-03-01T14:24:39.155Z,4.40
2023-03-01T14:29:41.479Z,4.58
2023-03-01T14:34:48.761Z,4.45
2023-03-01T14:39:51.218Z,4.64
2023-03-01T14:44:55.124Z,4.54
2023-03-01T14:50:02.174Z,4.62
2023-03-01T14:55:08.421Z,4.53
2023-03-01T15:00:18.583Z,4.47
2023-03-01T15:05:27.609Z,4.41
2023-03-01T15:10:35.955Z,4.55
2023-03-01T15:15:42.330Z,4.45
2023-03-01T15:20:44.333Z,4.57
2023-03-01T15:25:46.313Z,4.63
2023-03-01T15:30:56.529Z,4.51
2023-03-01T15:36:00.466Z,4.41
2023-03-01T15:41:23.667Z,4.49
2023-03-01T15:46:38.697Z,4.54
2023-03-01T15:51:40.579Z,4.46
2023-03-01T15:56:42.267Z,4.49
2023-03-01T16:01:44.864Z,4.45
2023-03-01T16:06:46.568Z,4.46
2023-03-01T16:11:49.190Z,4.18
2023-03-01T16:16:50.888Z,3.88
2023-03-01T16:21:52.525Z,3.80
2023-03-01T16:26:54.251Z,3.96
2023-03-01T16:31:56.219Z,3.76
2023-03-01T16:36:58.104Z,3.53
2023-03-01T16:42:01.552Z,3.34
2023-03-01T16:47:03.295Z,3.17
2023-03-01T16:52:04.916Z,3.51
2023-03-01T16:57:06.611Z,3.09
2023-03-01T17:02:13.558Z,2.92
2023-03-01T17:07:15.294Z,2.83
2023-03-01T17:12:18.003Z,2.77
2023-03-01T17:17:19.785Z,2.47
2023-03-01T17:22:21.496Z,2.05
2023-03-01T17:27:25.482Z,2.13
2023-03-01T17:32:27.865Z,2.02
2023-03-01T17:37:29.688Z,1.95
2023-03-01T17:42:31.553Z,1.70
2023-03-01T17:47:33.250Z,1.40
2023-03-01T17:52:34.917Z,1.43
2023-03-01T17:57:40.633Z,1.34
2023-03-01T18:02:42.905Z,1.36
2023-03-01T18:07:44.710Z,1.25
2023-03-01T18:12:46.871Z,0.79
2023-03-01T18:17:48.942Z,0.65
2023-03-01T18:22:52.755Z,0.40
2023-03-01T18:27:54.382Z,0.72
2023-03-01T18:32:56.486Z,0.57
2023-03-01T18:37:58.185Z,0.44
2023-03-01T18:43:00.355Z,0.38
2023-03-01T18:48:02.462Z,0.11
2023-03-01T18:53:04.249Z,-0.06
2023-03-01T18:58:06.216Z,-0.17
2023-03-01T19:03:08.084Z,-0.30
2023-03-01T19:08:09.893Z,-0.29
2023-03-01T19:13:11.663Z,-0.42
2023-03-01T19:18:13.357Z,-0.51
2023-03-01T19:23:15.256Z,-0.60
2023-03-01T19:28:17.282Z,-0.58
2023-03-01T19:33:19.177Z,-0.57
2023-03-01T19:38:20.946Z,-0.30
2023-03-01T19:43:23.686Z,-0.73
2023-03-01T19:48:25.688Z,-0.95
2023-03-01T19:53:27.567Z,-0.86
2023-03-01T19:58:30.786Z,-0.81
2023-03-01T20:03:36.373Z,-0.66
2023-03-01T20:08:40.275Z,-0.84
2023-03-01T20:13:42.444Z,-0.93
2023-03-01T20:18:44.490Z,-0.85
2023-03-01T20:23:47.263Z,-0.68
2023-03-01T20:28:54.070Z,-0.66
2023-03-01T20:33:57.576Z,-1.10
2023-03-01T20:38:59.618Z,-0.84
2023-03-01T20:44:01.380Z,-0.86
2023-03-01T20:49:04.350Z,-0.86
2023-03-01T20:54:06.286Z,-1.24
2023-03-01T20:59:09.788Z,-1.02
2023-03-01T21:04:11.707Z,-1.20
2023-03-01T21:09:13.446Z,-1.41
2023-03-01T21:14:15.122Z,-1.36
2023-03-01T21:19:17.172Z,-1.37
2023-03-01T21:24:18.856Z,-1.50
2023-03-01T21:29:20.679Z,-1.56
2023-03-01T21:34:22.323Z,-1.42
2023-03-01T21:39:28.850Z,-1.58
2023-03-01T21:44:31.667Z,-1.62
2023-03-01T21:49:33.297Z,-1.74
2023-03-01T21:54:35.148Z,-1.65
2023-03-01T21:59:36.903Z,-1.68
2023-03-01T22:04:38.536Z,-2.03
2023-03-01T22:09:40.391Z,-1.66
2023-03-01T22:14:43.852Z,-1.88
2023-03-01T22:19:46.377Z,-1.99
2023-03-01T22:24:48.014Z,-2.22
2023-03-01T22:29:49.641Z,-1.99
2023-03-01T22:34:51.317Z,-1.80
2023-03-01T22:39:53.066Z,-2.22
2023-03-01T22:44:54.730Z,-2.06
2023-03-01T22:49:57.056Z,-2.40
2023-03-01T22:54:58.972Z,-2.01
2023-03-01T23:00:00.706Z,-2.29
2023-03-01T23:05:02.511Z,-2.53
2023-03-01T23:10:05.560Z,-2.17
2023-03-01T23:15:08.447Z,-2.38
2023-03-01T23:20:10.875Z,-2.77
2023-03-01T23:25:13.219Z,-2.77
2023-03-01T23:30:15.066Z,-2.83
2023-03-01T23:35:16.788Z,-2.87
2023-03-01T23:40:20.549Z,-2.43
2023-03-01T23:45:22.218Z,-2.19
2023-03-01T23:50:25.009Z,-2.57
2023-03-01T23:55:29.396Z,-2.65
